Kersey, Indiana
Current Conditions -  °F | °C
As of 4:15 PM on Tuesday 25 Nov 2014 (Local Time) from KRZL Reporting Station
Overcast Overcast  
Wind Chill: 21°   Ceiling: 1700
Heat Index: 27°   Visibility: 10mi
Dew Point: 23°   Wind: 5mph
Humidity: 86%   Direction: 270°W
Pressure: 30.16"   Gusts: NA
Location:  41.1657°N, 87.2663°W
Report Text: KRZL 252215Z AUTO 27004KT 10SM OVC017 M03/M05 A3016 RMK AO2
Loading
Personal Weather Stations






























Interactive Weather Map New forecast layout! Learn more

10-Day Weather Forecast

Advertisements
Track Severe Weather on mobile